Ana Sayfa
METAR-TAF:

METAR-TAF

Havaalanları :

Erzincan Havalimanı

Erzincan, Türkiye

Enlem: 39-44N, Boylam: 039-30E, yükseklik: 1156 m

Güncel hava durumu gözlemi

Rapor saat 05:50 UTC de 42 dakika önce yapıldı.
Sakin rüzgar
Sıcaklık -1°C
Nem 80%
Basınç 1028 hPa
Görüş mesafesi: 7000 m

METAR: LTCD 180550Z 00000KT 7000 NSC M01/M04 Q1028 NOSIG

Saat: 09:32 (06:32 UTC)

Tahmin

Rapor saat 04:40 UTC de 1 saat ve 52 dakika önce yapıldı.
Ayın 18'si saat 06 UTC'den ayın 18'si saat 15 UTC'ye kadar geçerli Tahmin
Rüzgar değişken yönden 2 kt
Görüş mesafesi 10 km veya daha fazla
1500 m altında bulut yok ve kümülonimbus yok

TAF: LTCD 180440Z 1806/1815 VRB02KT CAVOK

4.000'den fazla havaalanı için hava durumu gözlemleri ve tahminleri (METAR ve TAF raporları).

Kullanılabilir istasyonlar harita üzerinde sarı ve kırmızı noktalarla gösterilir.

İstasyonun adını görmek için fareyi noktanın üzerinde gezdirin.

Sonrasında hava gözlem ve tahminlerini görmek için tıklayın.

Haritayı değiştirmek için: yaklaştırmak için siyah artı işaretli yeşil düğmeye ve uzaklaştırmak için de eksi işaretli düğmeye hızla tıklayın; bitişik haritalar için yeşil okları kullanın.


METAR-TAF: